Time;durP1;ratioP1;P1;durP2;ratioP2;P2;SDS_P1;SDS_P2;PMS_P1;PMS_P2;Temp;Humidity;BMP_temperature;BMP_pressure;BME280_temperature;BME280_humidity;BME280_pressure;Samples;Min_cycle;Max_cycle;Signal;HPM_P1;HPM_P2
2023/05/05 00:01:08;;;;;;;6.77;3.67;;;;;;;-145.69;100.00;52226.53;5095694;28;20215;-85
2023/05/05 00:03:36;;;;;;;7.60;3.93;;;;;;;-145.69;100.00;52228.53;5096359;28;20198;-85
2023/05/05 00:06:04;;;;;;;7.53;3.60;;;;;;;-145.69;100.00;52171.09;5094908;28;20595;-84
2023/05/05 00:08:30;;;;;;;6.97;3.70;;;;;;;-145.69;100.00;52218.63;5095995;28;20198;-85
2023/05/05 00:10:57;;;;;;;6.63;3.03;;;;;;;-145.69;100.00;52220.59;5095714;28;20285;-84
2023/05/05 00:13:23;;;;;;;5.30;3.37;;;;;;;-145.69;100.00;52216.66;5095353;28;20619;-84
2023/05/05 00:15:51;;;;;;;5.50;3.27;;;;;;;-145.69;100.00;52214.66;5093287;28;20198;-84
2023/05/05 00:18:18;;;;;;;7.73;3.30;;;;;;;-145.69;100.00;52246.34;5094680;28;20289;-85
2023/05/05 00:20:47;;;;;;;10.10;3.67;;;;;;;-145.69;100.00;52196.84;5094606;28;20198;-84
2023/05/05 00:23:13;;;;;;;5.33;3.00;;;;;;;-145.69;100.00;52222.59;5095776;28;20206;-85
2023/05/05 00:25:40;;;;;;;8.67;3.47;;;;;;;-145.69;100.00;52188.91;5097738;28;20201;-84
2023/05/05 00:28:06;;;;;;;5.97;3.47;;;;;;;-145.69;100.00;52194.88;5098892;28;20202;-84
2023/05/05 00:30:33;;;;;;;4.57;3.20;;;;;;;-145.69;100.00;52210.72;5097613;28;20202;-84
2023/05/05 00:33:00;;;;;;;6.80;3.37;;;;;;;-145.69;100.00;52216.66;5098197;28;20653;-84
2023/05/05 00:35:26;;;;;;;4.37;3.10;;;;;;;-145.69;100.00;52220.59;5097891;28;20206;-85
2023/05/05 00:37:54;;;;;;;7.33;3.17;;;;;;;-145.69;100.00;52198.81;5098539;28;20244;-84
2023/05/05 00:40:21;;;;;;;4.67;2.73;;;;;;;-145.69;100.00;52228.53;5098973;28;20201;-84
2023/05/05 00:42:49;;;;;;;3.17;2.80;;;;;;;-145.69;100.00;52256.25;5099074;28;20198;-84
2023/05/05 00:45:16;;;;;;;5.40;3.33;;;;;;;-145.69;100.00;52198.81;5098514;28;20201;-84
2023/05/05 00:47:47;;;;;;;9.33;2.87;;;;;;;-145.69;100.00;52206.75;5097317;28;20243;-84
2023/05/05 00:50:21;;;;;;;10.10;3.73;;;;;;;-145.69;100.00;52198.81;5097011;28;20201;-84
2023/05/05 00:52:48;;;;;;;4.77;3.20;;;;;;;-145.69;100.00;52190.91;5097182;28;20230;-84
2023/05/05 00:55:16;;;;;;;5.97;3.00;;;;;;;-145.69;100.00;52228.53;5096846;28;20206;-84
2023/05/05 00:57:43;;;;;;;4.17;3.13;;;;;;;-145.69;100.00;52224.56;5097020;28;20198;-84
2023/05/05 01:00:11;;;;;;;6.03;3.33;;;;;;;-145.69;100.00;52228.53;5096798;28;20216;-84
2023/05/05 01:02:38;;;;;;;5.67;2.77;;;;;;;-145.69;100.00;52254.28;5097261;28;20591;-84
2023/05/05 01:05:06;;;;;;;7.90;3.17;;;;;;;-145.69;100.00;52192.88;5096559;28;20234;-84
2023/05/05 01:07:43;;;;;;;6.67;3.60;;;;;;;-145.69;100.00;52238.44;5096559;28;20723;-83
2023/05/05 01:10:18;;;;;;;5.37;3.10;;;;;;;-145.69;100.00;52222.59;5096307;28;20197;-84
2023/05/05 01:12:51;;;;;;;8.53;3.53;;;;;;;-145.69;100.00;52192.88;5096096;28;20205;-84
2023/05/05 01:15:26;;;;;;;8.40;3.43;;;;;;;-145.69;100.00;52214.66;5096322;28;20538;-84
2023/05/05 01:17:58;;;;;;;6.87;3.27;;;;;;;-145.69;100.00;52230.50;5096747;28;20668;-84
2023/05/05 01:20:32;;;;;;;5.77;3.00;;;;;;;-145.69;100.00;52190.91;5096388;28;20195;-82
2023/05/05 01:23:17;;;;;;;7.30;3.57;;;;;;;-145.69;100.00;52202.78;5082931;28;20664;-84
2023/05/05 01:26:12;;;;;;;6.03;3.03;;;;;;;-145.69;100.00;52266.16;5083276;28;20190;-84
2023/05/05 01:29:07;;;;;;;6.47;3.20;;;;;;;-145.69;100.00;52214.66;5095469;28;20698;-84
2023/05/05 01:31:55;;;;;;;11.00;3.37;;;;;;;-145.69;100.00;52242.38;5076038;28;20234;-84
2023/05/05 01:34:26;;;;;;;12.47;3.90;;;;;;;-145.69;100.00;52222.59;5084151;28;20228;-84
2023/05/05 01:36:58;;;;;;;8.27;3.40;;;;;;;-145.69;100.00;52236.44;5095107;28;20205;-83
2023/05/05 01:39:28;;;;;;;5.90;2.77;;;;;;;-145.69;100.00;52202.78;5096038;28;20198;-84
2023/05/05 01:41:59;;;;;;;6.83;3.40;;;;;;;-145.69;100.00;52198.81;5095793;28;20218;-84
2023/05/05 01:44:27;;;;;;;8.50;3.57;;;;;;;-145.69;100.00;52222.59;5095844;28;20698;-84
2023/05/05 01:46:55;;;;;;;7.77;3.57;;;;;;;-145.69;100.00;52232.50;5096131;28;20202;-83
2023/05/05 01:49:22;;;;;;;7.50;3.67;;;;;;;-145.69;100.00;52232.50;5094608;28;20206;-83
2023/05/05 01:51:49;;;;;;;8.53;3.00;;;;;;;-145.69;100.00;52206.75;5094448;28;20285;-83
2023/05/05 01:54:18;;;;;;;8.60;3.30;;;;;;;-145.69;100.00;52202.78;5094939;28;20581;-83
2023/05/05 01:56:46;;;;;;;7.87;3.53;;;;;;;-145.69;100.00;52206.75;5094610;28;20237;-83
2023/05/05 01:59:13;;;;;;;8.63;3.30;;;;;;;-145.69;100.00;52254.28;5094545;28;20213;-83
2023/05/05 02:01:43;;;;;;;5.53;3.30;;;;;;;-145.69;100.00;52234.47;5094743;28;20656;-83
2023/05/05 02:04:13;;;;;;;4.67;3.37;;;;;;;-145.69;100.00;52222.59;5094940;28;20230;-84
2023/05/05 02:06:40;;;;;;;9.67;3.70;;;;;;;-145.69;100.00;52218.63;5095481;28;20194;-84
2023/05/05 02:09:10;;;;;;;6.97;3.60;;;;;;;-145.69;100.00;52230.50;5095516;28;20198;-84
2023/05/05 02:11:38;;;;;;;4.30;3.37;;;;;;;-145.69;100.00;52246.34;5095225;28;20202;-82
2023/05/05 02:14:06;;;;;;;3.73;3.00;;;;;;;-145.69;100.00;52200.81;5094887;28;20229;-83
2023/05/05 02:16:33;;;;;;;5.97;3.37;;;;;;;-145.69;100.00;52234.47;5094648;28;20240;-82
2023/05/05 02:19:03;;;;;;;6.07;3.07;;;;;;;-145.69;100.00;52224.56;5094541;28;20190;-82
2023/05/05 02:21:32;;;;;;;4.97;3.03;;;;;;;-145.69;100.00;52202.78;5094413;28;20294;-83
2023/05/05 02:23:59;;;;;;;12.63;4.23;;;;;;;-145.69;100.00;52226.53;5094598;28;20206;-83
2023/05/05 02:26:26;;;;;;;5.00;2.90;;;;;;;-145.69;100.00;52202.78;5094511;28;20606;-81
2023/05/05 02:29:00;;;;;;;4.70;3.10;;;;;;;-145.69;100.00;52232.50;5094302;28;20688;-84
2023/05/05 02:31:29;;;;;;;9.87;3.30;;;;;;;-145.69;100.00;52206.75;5094829;28;20201;-84
2023/05/05 02:33:57;;;;;;;5.07;3.30;;;;;;;-145.69;100.00;52214.66;5094421;28;20222;-83
2023/05/05 02:36:29;;;;;;;4.07;2.97;;;;;;;-145.69;100.00;52206.75;5094841;28;20212;-83
2023/05/05 02:39:00;;;;;;;7.03;3.27;;;;;;;-145.69;100.00;52230.50;5094912;28;20198;-83
2023/05/05 02:41:29;;;;;;;5.73;3.27;;;;;;;-145.69;100.00;52244.38;5095379;28;20702;-84
2023/05/05 02:43:59;;;;;;;5.50;3.60;;;;;;;-145.69;100.00;52242.38;5095268;28;20213;-84
2023/05/05 02:46:27;;;;;;;5.77;3.33;;;;;;;-145.69;100.00;52266.16;5094782;28;20197;-84
2023/05/05 02:48:53;;;;;;;4.60;2.87;;;;;;;-145.69;100.00;52210.72;5094496;28;20206;-84
2023/05/05 02:51:20;;;;;;;11.87;3.00;;;;;;;-145.69;100.00;52250.31;5094406;28;20198;-84
2023/05/05 02:53:46;;;;;;;8.27;3.23;;;;;;;-145.69;100.00;52250.31;5094577;28;20254;-84
2023/05/05 02:56:24;;;;;;;4.93;2.97;;;;;;;-145.69;100.00;52234.47;5094545;28;20190;-85
2023/05/05 02:58:54;;;;;;;7.93;3.13;;;;;;;-145.69;100.00;52220.59;5096449;28;20204;-84
2023/05/05 03:01:29;;;;;;;7.53;3.53;;;;;;;-145.69;100.00;52240.41;5096893;28;20191;-84
2023/05/05 03:04:02;;;;;;;7.10;3.10;;;;;;;-145.69;100.00;52230.50;5095354;28;20240;-85
2023/05/05 03:06:32;;;;;;;6.03;3.03;;;;;;;-145.69;100.00;52218.63;5094971;28;20671;-84
2023/05/05 03:09:06;;;;;;;4.07;2.87;;;;;;;-145.69;100.00;52218.63;5094428;28;20205;-85
2023/05/05 03:11:38;;;;;;;3.87;2.47;;;;;;;-145.69;100.00;52222.59;5095516;28;20748;-85
2023/05/05 03:14:08;;;;;;;5.65;2.75;;;;;;;-145.69;100.00;52184.97;5093762;28;20719;-84
2023/05/05 03:16:36;;;;;;;5.50;3.20;;;;;;;-145.69;100.00;52222.59;5095553;28;20216;-83
2023/05/05 03:19:03;;;;;;;4.28;2.90;;;;;;;-145.69;100.00;52222.59;5095065;28;20226;-85
2023/05/05 03:21:31;;;;;;;4.73;3.17;;;;;;;-145.69;100.00;52230.50;5094077;28;20194;-84
2023/05/05 03:23:58;;;;;;;5.43;3.10;;;;;;;-145.69;100.00;52216.66;5094035;28;20205;-84
2023/05/05 03:26:24;;;;;;;7.50;3.00;;;;;;;-145.69;100.00;52228.53;5087369;28;20202;-84
2023/05/05 03:28:52;;;;;;;9.50;3.50;;;;;;;-145.69;100.00;52218.63;5094970;28;20235;-85
2023/05/05 03:31:18;;;;;;;9.10;3.03;;;;;;;-145.69;100.00;52238.44;5094694;28;20197;-84
2023/05/05 03:33:45;;;;;;;5.77;3.37;;;;;;;-145.69;100.00;52244.38;5093909;28;20225;-83
2023/05/05 03:36:11;;;;;;;6.70;3.07;;;;;;;-145.69;100.00;52218.63;5093573;28;20194;-84
2023/05/05 03:38:38;;;;;;;4.23;3.10;;;;;;;-145.69;100.00;52202.78;5093332;28;20667;-84
2023/05/05 03:41:04;;;;;;;6.80;3.43;;;;;;;-145.69;100.00;52230.50;5093739;28;20201;-83
2023/05/05 03:43:31;;;;;;;7.07;2.93;;;;;;;-145.69;100.00;52212.69;5093382;28;20209;-82
2023/05/05 03:45:58;;;;;;;7.40;3.17;;;;;;;-145.69;100.00;52218.63;5093390;28;20190;-84
2023/05/05 03:48:25;;;;;;;5.63;3.10;;;;;;;-145.69;100.00;52238.44;5094092;28;20198;-84
2023/05/05 03:50:53;;;;;;;7.23;3.17;;;;;;;-145.69;100.00;52238.44;5094551;28;20194;-84
2023/05/05 03:53:20;;;;;;;6.17;3.20;;;;;;;-145.69;100.00;52196.84;5093311;28;20229;-85
2023/05/05 03:55:46;;;;;;;5.50;3.50;;;;;;;-145.69;100.00;52226.53;5094299;28;20268;-84
2023/05/05 03:58:13;;;;;;;7.33;3.23;;;;;;;-145.69;100.00;52228.53;5095838;28;20202;-84
2023/05/05 04:00:39;;;;;;;9.40;3.33;;;;;;;-145.69;100.00;52246.34;5098303;28;20653;-84
2023/05/05 04:03:07;;;;;;;3.63;2.90;;;;;;;-145.69;100.00;52236.44;5098014;28;20201;-84
2023/05/05 04:05:33;;;;;;;7.53;3.10;;;;;;;-145.69;100.00;52238.44;5097529;28;20711;-84
2023/05/05 04:08:00;;;;;;;6.00;2.80;;;;;;;-145.69;100.00;52254.28;5097771;28;20206;-82
2023/05/05 04:10:27;;;;;;;4.83;2.67;;;;;;;-145.69;100.00;52202.78;5097179;28;20202;-83
2023/05/05 04:12:53;;;;;;;6.27;3.30;;;;;;;-145.69;100.00;52230.50;5098876;28;20198;-85
2023/05/05 04:15:20;;;;;;;6.70;2.80;;;;;;;-145.69;100.00;52226.53;5099280;28;20580;-84
2023/05/05 04:17:46;;;;;;;4.20;2.80;;;;;;;-145.69;100.00;52228.53;5098411;28;20229;-85
2023/05/05 04:20:14;;;;;;;7.03;2.90;;;;;;;-145.69;100.00;52238.44;5097078;28;20208;-85
2023/05/05 04:22:40;;;;;;;4.93;2.77;;;;;;;-145.69;100.00;52218.63;5097842;28;20202;-85
2023/05/05 04:25:07;;;;;;;6.30;2.50;;;;;;;-145.69;100.00;52238.44;5098554;28;20205;-85
2023/05/05 04:27:34;;;;;;;4.20;2.50;;;;;;;-145.69;100.00;52224.56;5098090;28;20190;-84
2023/05/05 04:30:01;;;;;;;7.05;3.13;;;;;;;-145.69;100.00;52222.59;5098085;28;20194;-84
2023/05/05 04:32:27;;;;;;;4.53;2.83;;;;;;;-145.69;100.00;52238.44;5098233;28;20199;-84
2023/05/05 04:34:54;;;;;;;12.20;3.60;;;;;;;-145.69;100.00;52222.59;5097276;28;20692;-83
2023/05/05 04:37:22;;;;;;;4.87;2.90;;;;;;;-145.69;100.00;52206.75;5096142;28;20605;-85
2023/05/05 04:39:49;;;;;;;7.37;2.70;;;;;;;-145.69;100.00;52220.59;5099355;28;20205;-84
2023/05/05 04:42:15;;;;;;;6.55;2.90;;;;;;;-145.69;100.00;52222.59;5100398;28;20202;-84
2023/05/05 04:44:41;;;;;;;4.03;2.80;;;;;;;-145.69;100.00;52254.28;5098770;28;20201;-83
2023/05/05 04:47:08;;;;;;;4.63;2.83;;;;;;;-145.69;100.00;52244.38;5098213;28;20198;-83
2023/05/05 04:49:34;;;;;;;6.75;2.90;;;;;;;-145.69;100.00;52200.81;5096708;28;20198;-84
2023/05/05 04:52:01;;;;;;;3.38;2.50;;;;;;;-145.69;100.00;52242.38;5097309;28;20279;-84
2023/05/05 04:54:28;;;;;;;6.20;2.65;;;;;;;-145.69;100.00;52186.94;5097886;28;20233;-83
2023/05/05 04:56:55;;;;;;;3.80;2.30;;;;;;;-145.69;100.00;52222.59;5097626;28;20209;-84
2023/05/05 04:59:21;;;;;;;4.15;2.38;;;;;;;-145.69;100.00;52208.72;5098252;28;20684;-85
2023/05/05 05:01:48;;;;;;;6.03;2.80;;;;;;;-145.69;100.00;52238.44;5098155;28;20285;-84
2023/05/05 05:04:17;;;;;;;6.18;2.90;;;;;;;-145.69;100.00;52204.75;5097784;28;20233;-85
2023/05/05 05:06:43;;;;;;;6.25;2.70;;;;;;;-145.69;100.00;52210.72;5096914;28;20194;-85
2023/05/05 05:09:10;;;;;;;3.38;2.65;;;;;;;-145.69;100.00;52234.47;5097354;28;20209;-85
2023/05/05 05:11:38;;;;;;;3.92;2.42;;;;;;;-145.69;100.00;52206.75;5097952;28;20198;-86
2023/05/05 05:14:04;;;;;;;6.15;2.47;;;;;;;-145.69;100.00;52230.50;5097057;28;20202;-85
2023/05/05 05:16:30;;;;;;;4.20;2.28;;;;;;;-145.69;100.00;52202.78;5096428;28;20198;-85
2023/05/05 05:18:57;;;;;;;5.43;2.47;;;;;;;-145.69;100.00;52222.59;5098160;28;20202;-86
2023/05/05 05:21:23;;;;;;;5.95;2.20;;;;;;;-145.69;100.00;52202.78;5097817;28;20209;-85
2023/05/05 05:23:50;;;;;;;6.68;2.63;;;;;;;-145.69;100.00;52202.78;5097430;28;20195;-85
2023/05/05 05:26:16;;;;;;;6.38;2.40;;;;;;;-145.69;100.00;52206.75;5096664;28;20198;-86
2023/05/05 05:28:44;;;;;;;3.50;2.15;;;;;;;-145.69;100.00;52190.91;5096614;28;20207;-85
2023/05/05 05:31:10;;;;;;;4.10;2.10;;;;;;;-145.69;100.00;52179.03;5095682;28;20194;-85
2023/05/05 05:33:37;;;;;;;2.55;1.90;;;;;;;-145.69;100.00;52206.75;5075615;28;20234;-85
2023/05/05 05:36:04;;;;;;;1.80;1.60;;;;;;;-145.69;100.00;52167.13;5076016;28;20230;-84
2023/05/05 05:38:30;;;;;;;3.20;1.92;;;;;;;-145.69;100.00;52151.28;5092497;28;20201;-84
2023/05/05 05:40:57;;;;;;;5.18;1.85;;;;;;;-145.69;100.00;52163.19;5096046;28;20198;-85
2023/05/05 05:43:23;;;;;;;6.85;2.75;;;;;;;-145.69;100.00;52159.22;5097691;28;20194;-85
2023/05/05 05:45:51;;;;;;;5.20;2.08;;;;;;;-145.69;100.00;52149.31;5097423;28;20694;-85
2023/05/05 05:48:18;;;;;;;3.33;1.83;;;;;;;-145.69;100.00;52167.13;5098029;28;20241;-85
2023/05/05 05:50:44;;;;;;;3.53;1.75;;;;;;;-145.69;100.00;52155.25;5097438;28;20205;-85
2023/05/05 05:53:10;;;;;;;1.73;1.60;;;;;;;-145.69;100.00;52157.25;5097346;28;20213;-84
2023/05/05 05:55:37;;;;;;;3.13;1.75;;;;;;;-145.69;99.77;52155.25;5097744;28;20232;-85
2023/05/05 05:58:03;;;;;;;3.70;1.75;;;;;;;-145.69;100.00;52155.25;5097261;28;20205;-85
2023/05/05 06:00:30;;;;;;;6.03;1.95;;;;;;;-145.69;100.00;52196.84;5097603;28;20193;-85
2023/05/05 06:02:58;;;;;;;2.53;1.60;;;;;;;-145.69;100.00;52157.25;5097427;28;20679;-86
2023/05/05 06:05:24;;;;;;;2.58;1.83;;;;;;;-145.69;100.00;52161.19;5096657;28;20234;-85
2023/05/05 06:07:50;;;;;;;2.60;1.70;;;;;;;-145.69;99.34;52127.53;5095964;28;20459;-85
2023/05/05 06:10:17;;;;;;;2.53;1.80;;;;;;;-145.69;96.16;52151.28;5096294;28;20197;-85
2023/05/05 06:12:43;;;;;;;4.90;2.40;;;;;;;-145.69;95.48;52175.06;5096915;28;20194;-86
2023/05/05 06:15:11;;;;;;;1.58;1.30;;;;;;;-145.69;95.32;52137.44;5096035;28;20221;-85
2023/05/05 06:17:37;;;;;;;3.05;1.92;;;;;;;-145.69;94.95;52149.31;5095136;28;20198;-83
2023/05/05 06:20:06;;;;;;;2.13;1.50;;;;;;;-145.69;99.29;52147.34;5094890;28;20206;-85
2023/05/05 06:22:33;;;;;;;3.20;1.65;;;;;;;-145.69;98.77;52141.41;5094473;28;20205;-85
2023/05/05 06:24:59;;;;;;;2.13;1.60;;;;;;;-145.69;99.35;52143.38;5095722;28;20194;-85
2023/05/05 06:27:26;;;;;;;2.15;1.50;;;;;;;-145.69;98.87;52147.34;5094261;28;20679;-85
2023/05/05 06:29:52;;;;;;;3.35;1.80;;;;;;;-145.69;99.54;52129.50;5094351;28;20201;-85
2023/05/05 06:32:19;;;;;;;4.18;1.50;;;;;;;-145.69;94.71;52147.34;5094539;28;20198;-84
2023/05/05 06:34:47;;;;;;;6.03;1.73;;;;;;;-145.69;94.67;52143.38;5094304;28;20233;-84
2023/05/05 06:37:14;;;;;;;3.30;1.90;;;;;;;-145.69;95.65;52133.47;5093731;28;20260;-83
2023/05/05 06:39:41;;;;;;;3.90;1.80;;;;;;;-145.69;93.10;52133.47;5094203;28;20663;-83
2023/05/05 06:42:07;;;;;;;2.63;1.55;;;;;;;-145.69;96.80;52167.13;5093620;28;20224;-84
2023/05/05 06:44:35;;;;;;;2.35;1.40;;;;;;;-145.69;95.99;52147.34;5094230;28;20198;-84
2023/05/05 06:47:01;;;;;;;3.50;1.63;;;;;;;-145.69;92.85;52143.38;5093911;28;20251;-84
2023/05/05 06:49:28;;;;;;;2.90;1.63;;;;;;;-145.69;95.61;52129.50;5094391;28;20202;-83
2023/05/05 06:51:55;;;;;;;2.80;1.77;;;;;;;-145.69;96.02;52149.31;5094300;28;20197;-85
2023/05/05 06:54:23;;;;;;;4.00;1.50;;;;;;;-145.69;95.20;52159.22;5093753;28;20201;-84
2023/05/05 06:56:49;;;;;;;3.03;1.85;;;;;;;-145.69;99.13;52121.59;5094511;28;20321;-84
2023/05/05 06:59:16;;;;;;;5.20;2.00;;;;;;;-145.69;100.00;52167.13;5094292;28;20197;-84
2023/05/05 07:01:42;;;;;;;2.75;1.88;;;;;;;-145.69;100.00;52159.22;5094606;28;20397;-84
2023/05/05 07:04:09;;;;;;;3.28;1.60;;;;;;;-145.69;100.00;52163.19;5094239;28;20240;-84
2023/05/05 07:06:35;;;;;;;2.33;1.75;;;;;;;-145.69;100.00;52157.25;5094473;28;20300;-85
2023/05/05 07:09:02;;;;;;;4.50;1.70;;;;;;;-145.69;100.00;52177.03;5093855;28;20210;-85
2023/05/05 07:11:30;;;;;;;10.85;3.05;;;;;;;-145.69;100.00;52173.09;5093936;28;20198;-84
2023/05/05 07:13:56;;;;;;;7.55;2.40;;;;;;;-145.69;100.00;52163.19;5093358;28;20197;-80
2023/05/05 07:16:25;;;;;;;7.07;2.40;;;;;;;-145.69;100.00;52143.38;5093777;28;20622;-79
2023/05/05 07:18:52;;;;;;;5.28;2.55;;;;;;;-145.69;100.00;52188.91;5093497;28;20289;-80
2023/05/05 07:21:18;;;;;;;4.38;2.30;;;;;;;-145.69;100.00;52198.81;5093285;28;20202;-81
2023/05/05 07:23:46;;;;;;;7.45;2.50;;;;;;;-145.69;100.00;52186.94;5093018;28;20202;-78
2023/05/05 07:26:13;;;;;;;6.97;2.83;;;;;;;-145.69;100.00;52163.19;5093419;28;20198;-78
2023/05/05 07:28:41;;;;;;;8.40;3.28;;;;;;;-145.69;100.00;52190.91;5081717;28;20644;-79
2023/05/05 07:31:08;;;;;;;8.23;2.40;;;;;;;-145.69;100.00;52186.94;5093166;28;20581;-79
2023/05/05 07:33:34;;;;;;;5.35;2.72;;;;;;;-145.69;100.00;52210.72;5092069;28;20190;-79
2023/05/05 07:36:01;;;;;;;9.70;3.22;;;;;;;-145.69;100.00;52167.13;5093013;28;20261;-78
2023/05/05 07:38:27;;;;;;;6.55;2.67;;;;;;;-145.69;100.00;52204.75;5092922;28;20190;-79
2023/05/05 07:40:54;;;;;;;5.40;2.90;;;;;;;-145.69;100.00;52198.81;5093044;28;20584;-79
2023/05/05 07:43:20;;;;;;;6.70;2.95;;;;;;;-145.69;100.00;52194.88;5078555;28;20201;-78
2023/05/05 07:45:48;;;;;;;7.85;3.10;;;;;;;-145.69;100.00;52198.81;5093386;28;20205;-79
2023/05/05 07:48:14;;;;;;;4.32;2.60;;;;;;;-145.69;100.00;52155.25;5092949;28;20198;-78
2023/05/05 07:50:41;;;;;;;6.13;2.80;;;;;;;-145.69;100.00;52169.13;5092538;28;20244;-78
2023/05/05 07:53:07;;;;;;;6.13;3.03;;;;;;;-145.69;100.00;52151.28;5093083;28;20193;-78
2023/05/05 07:55:34;;;;;;;8.20;3.20;;;;;;;-145.69;100.00;52179.03;5092981;28;20225;-77
2023/05/05 07:58:02;;;;;;;4.30;2.60;;;;;;;-145.69;100.00;52204.75;5093007;28;20255;-79
2023/05/05 08:00:29;;;;;;;7.85;2.65;;;;;;;-145.69;100.00;52155.25;5092782;28;20220;-79
2023/05/05 08:02:56;;;;;;;7.45;2.83;;;;;;;-145.69;100.00;52232.50;5092475;28;20733;-78
2023/05/05 08:05:23;;;;;;;6.75;3.28;;;;;;;-145.69;100.00;52192.88;5091822;28;20225;-77
2023/05/05 08:07:49;;;;;;;8.32;3.00;;;;;;;-145.69;100.00;52210.72;5091807;28;20194;-77
2023/05/05 08:10:16;;;;;;;7.25;2.85;;;;;;;-145.69;100.00;52194.88;5092860;28;20201;-77
2023/05/05 08:12:42;;;;;;;5.10;2.72;;;;;;;-145.69;100.00;52163.19;5092728;28;20205;-77
2023/05/05 08:15:09;;;;;;;4.40;2.67;;;;;;;-145.69;100.00;52210.72;5092670;28;20205;-77
2023/05/05 08:17:50;;;;;;;4.25;2.53;;;;;;;-145.69;100.00;52198.81;5092356;28;20657;-77
2023/05/05 08:20:19;;;;;;;3.85;2.38;;;;;;;-145.69;100.00;52181.00;5092342;28;20204;-77
2023/05/05 08:22:46;;;;;;;4.50;2.70;;;;;;;-145.69;100.00;52179.03;5091007;28;20206;-77
2023/05/05 08:25:13;;;;;;;5.10;2.80;;;;;;;-145.69;100.00;52171.09;5090650;28;20194;-78
2023/05/05 08:27:41;;;;;;;4.70;2.50;;;;;;;-145.69;100.00;52163.19;5090838;28;20657;-78
2023/05/05 08:30:09;;;;;;;3.67;2.38;;;;;;;-145.69;100.00;52190.91;5090557;28;20206;-77
2023/05/05 08:32:37;;;;;;;4.32;2.22;;;;;;;-145.69;100.00;52186.94;5090913;28;20281;-77
2023/05/05 08:35:04;;;;;;;4.35;2.10;;;;;;;-145.69;100.00;52181.00;5090976;28;20201;-78
2023/05/05 08:37:32;;;;;;;4.70;2.20;;;;;;;-145.69;100.00;52167.13;5092148;28;20194;-78
2023/05/05 08:39:59;;;;;;;8.18;2.35;;;;;;;-145.69;100.00;52157.25;5092342;28;20732;-78
2023/05/05 08:42:25;;;;;;;5.45;2.70;;;;;;;-145.69;100.00;52141.41;5092820;28;20198;-78
2023/05/05 08:44:52;;;;;;;4.22;2.38;;;;;;;-145.69;100.00;52139.41;5094118;28;20198;-78
2023/05/05 08:47:19;;;;;;;3.30;2.80;;;;;;;-145.69;100.00;52141.41;5096130;28;20194;-78
2023/05/05 08:49:46;;;;;;;4.63;2.40;;;;;;;-145.69;100.00;52198.81;5096051;28;20198;-78
2023/05/05 08:52:17;;;;;;;2.70;1.77;;;;;;;-145.69;100.00;52133.47;5095658;28;20553;-79
2023/05/05 08:54:51;;;;;;;4.60;1.85;;;;;;;-145.69;100.00;52117.63;5096211;28;20557;-78
2023/05/05 08:57:24;;;;;;;8.60;2.55;;;;;;;-145.69;100.00;52177.03;5095618;28;20257;-79
2023/05/05 08:59:52;;;;;;;5.53;2.33;;;;;;;-145.69;100.00;52133.47;5095932;28;20194;-78
2023/05/05 09:02:22;;;;;;;7.05;2.72;;;;;;;-145.69;100.00;52143.38;5095858;28;20217;-78
2023/05/05 09:04:49;;;;;;;8.25;2.20;;;;;;;-145.69;100.00;52119.63;5095917;28;20265;-78
2023/05/05 09:07:16;;;;;;;7.28;1.80;;;;;;;-145.69;100.00;52133.47;5095983;28;20198;-80
2023/05/05 09:09:43;;;;;;;3.70;1.98;;;;;;;-145.69;100.00;52109.72;5095757;28;20198;-79
2023/05/05 09:12:11;;;;;;;3.92;1.95;;;;;;;-145.69;100.00;52097.84;5095355;28;20194;-79
2023/05/05 09:14:37;;;;;;;3.85;1.92;;;;;;;-145.69;100.00;52127.53;5095884;28;20202;-79
2023/05/05 09:17:03;;;;;;;3.83;1.60;;;;;;;-145.69;99.76;52105.75;5095544;28;20229;-79
2023/05/05 09:19:30;;;;;;;3.42;1.63;;;;;;;-145.69;100.00;52091.88;5095601;28;20190;-79
2023/05/05 09:21:56;;;;;;;3.50;1.65;;;;;;;-145.69;100.00;52117.63;5095642;28;20201;-80
2023/05/05 09:24:23;;;;;;;2.92;1.67;;;;;;;-145.69;100.00;52089.91;5095100;28;20198;-79
2023/05/05 09:26:49;;;;;;;4.88;1.60;;;;;;;-145.69;100.00;52083.97;5095523;28;20194;-80
2023/05/05 09:29:21;;;;;;;3.17;1.75;;;;;;;-145.69;100.00;52125.56;5095491;28;20209;-80
2023/05/05 09:32:04;;;;;;;4.85;1.90;;;;;;;-145.69;100.00;52119.63;5089876;28;20195;-80
2023/05/05 09:34:32;;;;;;;4.60;1.90;;;;;;;-145.69;100.00;52137.44;5075089;28;20202;-80
2023/05/05 09:36:58;;;;;;;3.58;1.90;;;;;;;-145.69;100.00;52121.59;5089763;28;20233;-80
2023/05/05 09:39:25;;;;;;;6.78;2.10;;;;;;;-145.69;100.00;52135.47;5095377;28;20206;-81
2023/05/05 09:41:51;;;;;;;2.83;1.58;;;;;;;-145.69;100.00;52155.25;5095306;28;20202;-79
2023/05/05 09:44:34;;;;;;;5.10;1.92;;;;;;;-145.69;100.00;52139.41;5095292;28;20324;-79
2023/05/05 09:47:00;;;;;;;2.25;1.55;;;;;;;-145.69;100.00;52107.72;5095128;28;20229;-80
2023/05/05 09:49:27;;;;;;;3.28;1.88;;;;;;;-145.69;100.00;52123.56;5094061;28;20645;-81
2023/05/05 09:51:54;;;;;;;3.92;1.63;;;;;;;-145.69;100.00;52131.50;5095177;28;20222;-80
2023/05/05 09:54:26;;;;;;;1.77;1.48;;;;;;;-145.69;100.00;52113.66;5094897;28;20201;-81
2023/05/05 09:56:52;;;;;;;3.50;1.40;;;;;;;-145.69;100.00;52083.97;5093735;28;20236;-81
2023/05/05 09:59:20;;;;;;;3.67;1.90;;;;;;;-145.69;100.00;52113.66;5094714;28;20679;-80
2023/05/05 10:01:48;;;;;;;3.55;1.40;;;;;;;-145.69;90.14;52072.09;5094206;28;20202;-80
2023/05/05 10:04:25;;;;;;;3.13;1.42;;;;;;;-145.69;74.38;52082.00;5094008;28;20229;-82
2023/05/05 10:06:52;;;;;;;3.80;1.33;;;;;;;-145.69;85.11;52101.78;5094819;28;20206;-81
2023/05/05 10:09:18;;;;;;;2.13;1.40;;;;;;;-145.69;83.13;52068.13;5094710;28;20221;-82
2023/05/05 10:11:46;;;;;;;6.88;1.38;;;;;;;-145.69;80.83;52064.16;5094623;28;20201;-82
2023/05/05 10:14:14;;;;;;;2.60;1.38;;;;;;;-145.69;77.07;52064.16;5094287;28;20197;-82
2023/05/05 10:16:46;;;;;;;3.67;1.20;;;;;;;-145.69;77.54;52062.19;5094331;28;20262;-82
2023/05/05 10:19:15;;;;;;;1.67;1.35;;;;;;;-145.69;72.11;52048.31;5094192;28;20198;-82
2023/05/05 10:21:47;;;;;;;1.45;1.20;;;;;;;-145.69;65.41;52076.03;5094285;28;20733;-82
2023/05/05 10:24:23;;;;;;;2.40;1.30;;;;;;;-145.69;75.42;52032.47;5093773;28;20489;-81
2023/05/05 10:26:51;;;;;;;1.25;1.15;;;;;;;-145.69;68.52;52030.50;5093833;28;20213;-82
2023/05/05 10:29:27;;;;;;;2.40;1.13;;;;;;;-145.69;58.57;52012.69;5094044;28;20205;-80
2023/05/05 10:32:00;;;;;;;3.25;1.20;;;;;;;-145.69;58.90;52052.28;5094463;28;20660;-79
2023/05/05 10:34:38;;;;;;;2.72;1.40;;;;;;;-145.69;64.30;52087.94;5093935;28;20194;-81
2023/05/05 10:37:06;;;;;;;2.53;1.50;;;;;;;-145.69;68.46;52062.19;5093936;28;20235;-80
2023/05/05 10:39:34;;;;;;;2.05;1.30;;;;;;;-145.69;74.83;52052.28;5093864;28;20204;-80
2023/05/05 10:42:01;;;;;;;2.20;1.25;;;;;;;-145.69;69.07;52032.47;5093663;28;20190;-80
2023/05/05 10:44:33;;;;;;;8.15;1.42;;;;;;;-145.69;68.77;52095.84;5092867;28;20227;-79
2023/05/05 10:47:01;;;;;;;2.60;1.38;;;;;;;-145.69;71.79;52064.16;5093129;28;20206;-79
2023/05/05 10:49:38;;;;;;;4.07;1.52;;;;;;;-145.69;71.42;52064.16;5093481;28;20311;-80
2023/05/05 10:52:13;;;;;;;1.70;1.45;;;;;;;-145.69;70.21;52052.28;5093206;28;20209;-80
2023/05/05 10:54:51;;;;;;;2.70;1.23;;;;;;;-145.69;67.62;52038.44;5091360;28;21015;-80
2023/05/05 10:57:23;;;;;;;2.20;1.27;;;;;;;-145.69;72.98;52070.09;5090583;28;20283;-79
2023/05/05 10:59:50;;;;;;;4.50;1.45;;;;;;;-145.69;69.11;52054.25;5092079;28;20766;-79
2023/05/05 11:02:20;;;;;;;2.42;1.60;;;;;;;-145.69;67.74;52070.09;5092454;28;20208;-79
2023/05/05 11:05:16;;;;;;;2.90;1.52;;;;;;;-145.69;61.86;52062.19;5093156;28;20261;-79
2023/05/05 11:07:43;;;;;;;4.03;1.30;;;;;;;-145.69;65.83;52064.16;5092573;28;20259;-80
2023/05/05 11:10:11;;;;;;;2.35;1.25;;;;;;;-145.69;60.51;52012.69;5092752;28;20201;-79
2023/05/05 11:13:15;;;;;;;3.42;1.27;;;;;;;-145.69;53.92;52024.56;5092853;28;20209;-79
2023/05/05 11:15:41;;;;;;;2.05;1.20;;;;;;;-145.69;52.92;52020.59;5093349;28;20595;-79